メインページ
METAR-TAF:

METAR-TAF

空港 :

ストックホルム・アーランダ空港

ストックホルム・アーランダ, スウェーデン

緯度: 59-39N, 経度: 017-57E, 海抜: 38m

現時点の気象観測

当レポートは44分前の16:20(UTC)に作成
西/北西の風 11kt
気温 10°C
湿度 62%
気圧 1024 hPa
視程10km以上
1,500メートル以下は雲なし、積乱雲なし

METAR: ESSA 071620Z 30011KT CAVOK 10/03 Q1024 R01L/29//95 R01R/29//95 R08/29//95 BECMG BKN015

時間: 19:04 (17:04 UTC)

予報

当レポートは5時間34分前の11:30(UTC)に作成
予報は07日の 12時(UTC)から 08日の 12時(UTC)まで有効
西/南西の風 15kt
視程10km以上
高度900ftの千切れ雲あり
07日の 12時(UTC)から 07日の 14時(UTC)まで徐々に
北西の風 12kt
高度1500ftの雲は散在している
07日の 15時(UTC)から 07日の 18時(UTC)まで徐々に
西の風 5kt

TAF: ESSA 071130Z 0712/0812 25015KT 9999 BKN009 BECMG 0712/0714 32012KT SCT015 BECMG 0715/0718 26005KT

4,000以上の空港の気象観測と天気予報(METAR報とTAF報)

利用可能な観測所は地図上に黄色い丸と赤い丸で示す。

丸の上にカーソルを重ねると観測所名を参照できる。

次にクリックすると気象観測と天気予報を参照できる。

マップの切り替え:黒色「×」印の緑ボタンをクリックして拡大、「-」印の緑ボタンをクリックして縮小、緑色の三角印をクリックして隣りの地図に切り替え


METAR-TAF: